sensor_id;sensor_type;location;lat;lon;timestamp;temperature;humidity
22633;DHT22;11483;55.828;37.488;2023-12-22T00:02:09;2.00;99.90
22633;DHT22;11483;55.828;37.488;2023-12-22T00:04:35;2.00;99.90
22633;DHT22;11483;55.828;37.488;2023-12-22T00:07:01;2.00;99.90
22633;DHT22;11483;55.828;37.488;2023-12-22T00:09:27;2.00;99.90
22633;DHT22;11483;55.828;37.488;2023-12-22T00:11:53;2.00;99.90
22633;DHT22;11483;55.828;37.488;2023-12-22T00:14:19;2.00;99.90
22633;DHT22;11483;55.828;37.488;2023-12-22T00:16:45;2.00;99.90
22633;DHT22;11483;55.828;37.488;2023-12-22T00:19:10;2.00;99.90
22633;DHT22;11483;55.828;37.488;2023-12-22T00:21:36;1.90;99.90
22633;DHT22;11483;55.828;37.488;2023-12-22T00:24:02;2.00;99.90
22633;DHT22;11483;55.828;37.488;2023-12-22T00:26:28;2.00;99.90
22633;DHT22;11483;55.828;37.488;2023-12-22T00:28:54;2.00;99.90
22633;DHT22;11483;55.828;37.488;2023-12-22T00:31:20;2.00;99.90
22633;DHT22;11483;55.828;37.488;2023-12-22T00:33:45;2.00;99.90
22633;DHT22;11483;55.828;37.488;2023-12-22T00:36:12;2.00;99.90
22633;DHT22;11483;55.828;37.488;2023-12-22T00:38:38;2.00;99.90
22633;DHT22;11483;55.828;37.488;2023-12-22T00:41:03;2.00;99.90
22633;DHT22;11483;55.828;37.488;2023-12-22T00:43:29;1.90;99.90
22633;DHT22;11483;55.828;37.488;2023-12-22T00:45:56;1.90;99.90
22633;DHT22;11483;55.828;37.488;2023-12-22T00:48:23;1.90;99.90
22633;DHT22;11483;55.828;37.488;2023-12-22T00:50:49;1.90;99.90
22633;DHT22;11483;55.828;37.488;2023-12-22T00:53:15;1.90;99.90
22633;DHT22;11483;55.828;37.488;2023-12-22T00:55:40;1.90;99.90
22633;DHT22;11483;55.828;37.488;2023-12-22T00:58:06;1.90;99.90
22633;DHT22;11483;55.828;37.488;2023-12-22T01:00:32;1.90;99.90
22633;DHT22;11483;55.828;37.488;2023-12-22T01:02:58;1.90;99.90
22633;DHT22;11483;55.828;37.488;2023-12-22T01:05:24;1.90;99.90
22633;DHT22;11483;55.828;37.488;2023-12-22T01:07:50;1.90;99.90
22633;DHT22;11483;55.828;37.488;2023-12-22T01:10:16;1.80;99.90
22633;DHT22;11483;55.828;37.488;2023-12-22T01:12:41;1.80;99.90
22633;DHT22;11483;55.828;37.488;2023-12-22T01:15:07;1.80;99.90
22633;DHT22;11483;55.828;37.488;2023-12-22T01:17:33;1.80;99.90
22633;DHT22;11483;55.828;37.488;2023-12-22T01:19:59;1.80;99.90
22633;DHT22;11483;55.828;37.488;2023-12-22T01:22:25;1.80;99.90
22633;DHT22;11483;55.828;37.488;2023-12-22T01:24:51;1.90;99.90
22633;DHT22;11483;55.828;37.488;2023-12-22T01:27:17;1.90;99.90
22633;DHT22;11483;55.828;37.488;2023-12-22T01:29:43;1.90;99.90
22633;DHT22;11483;55.828;37.488;2023-12-22T01:32:09;1.90;99.90
22633;DHT22;11483;55.828;37.488;2023-12-22T01:34:35;1.90;99.90
22633;DHT22;11483;55.828;37.488;2023-12-22T01:37:01;1.90;99.90
22633;DHT22;11483;55.828;37.488;2023-12-22T01:39:27;1.80;99.90
22633;DHT22;11483;55.828;37.488;2023-12-22T01:41:52;1.80;99.90
22633;DHT22;11483;55.828;37.488;2023-12-22T01:44:19;1.90;99.90
22633;DHT22;11483;55.828;37.488;2023-12-22T01:46:45;1.90;99.90
22633;DHT22;11483;55.828;37.488;2023-12-22T01:49:11;1.90;99.90
22633;DHT22;11483;55.828;37.488;2023-12-22T01:51:39;2.00;99.90
22633;DHT22;11483;55.828;37.488;2023-12-22T01:54:06;2.00;99.90
22633;DHT22;11483;55.828;37.488;2023-12-22T01:56:33;2.00;99.90
22633;DHT22;11483;55.828;37.488;2023-12-22T01:59:00;2.10;99.90
22633;DHT22;11483;55.828;37.488;2023-12-22T02:01:27;2.10;99.90
22633;DHT22;11483;55.828;37.488;2023-12-22T02:03:54;2.10;99.90
22633;DHT22;11483;55.828;37.488;2023-12-22T02:06:20;2.10;99.90
22633;DHT22;11483;55.828;37.488;2023-12-22T02:08:47;2.10;99.90
22633;DHT22;11483;55.828;37.488;2023-12-22T02:11:14;2.10;99.90
22633;DHT22;11483;55.828;37.488;2023-12-22T02:13:41;2.10;99.90
22633;DHT22;11483;55.828;37.488;2023-12-22T02:16:16;2.20;99.90
22633;DHT22;11483;55.828;37.488;2023-12-22T02:18:46;2.20;99.90
22633;DHT22;11483;55.828;37.488;2023-12-22T02:21:12;2.20;99.90
22633;DHT22;11483;55.828;37.488;2023-12-22T02:23:38;2.20;99.90
22633;DHT22;11483;55.828;37.488;2023-12-22T02:26:17;2.20;99.90
22633;DHT22;11483;55.828;37.488;2023-12-22T02:28:46;2.30;99.90
22633;DHT22;11483;55.828;37.488;2023-12-22T02:31:27;2.30;99.90
22633;DHT22;11483;55.828;37.488;2023-12-22T02:33:54;2.30;99.90
22633;DHT22;11483;55.828;37.488;2023-12-22T02:36:22;2.30;99.90
22633;DHT22;11483;55.828;37.488;2023-12-22T02:38:50;2.30;99.90
22633;DHT22;11483;55.828;37.488;2023-12-22T02:41:17;2.30;99.90
22633;DHT22;11483;55.828;37.488;2023-12-22T02:43:43;2.40;99.90
22633;DHT22;11483;55.828;37.488;2023-12-22T02:46:14;2.40;99.90
22633;DHT22;11483;55.828;37.488;2023-12-22T02:48:40;2.40;99.90
22633;DHT22;11483;55.828;37.488;2023-12-22T02:51:06;2.40;99.90
22633;DHT22;11483;55.828;37.488;2023-12-22T02:53:32;2.40;99.90
22633;DHT22;11483;55.828;37.488;2023-12-22T02:55:58;2.40;99.90
22633;DHT22;11483;55.828;37.488;2023-12-22T02:58:24;2.40;99.90
22633;DHT22;11483;55.828;37.488;2023-12-22T03:00:50;2.40;99.90
22633;DHT22;11483;55.828;37.488;2023-12-22T03:03:16;2.40;99.90
22633;DHT22;11483;55.828;37.488;2023-12-22T03:05:41;2.30;99.90
22633;DHT22;11483;55.828;37.488;2023-12-22T03:08:07;2.30;99.90
22633;DHT22;11483;55.828;37.488;2023-12-22T03:10:33;2.30;99.90
22633;DHT22;11483;55.828;37.488;2023-12-22T03:12:59;2.30;99.90
22633;DHT22;11483;55.828;37.488;2023-12-22T03:15:25;2.30;99.90
22633;DHT22;11483;55.828;37.488;2023-12-22T03:17:51;2.30;99.90
22633;DHT22;11483;55.828;37.488;2023-12-22T03:20:17;2.30;99.90
22633;DHT22;11483;55.828;37.488;2023-12-22T03:22:43;2.30;99.90
22633;DHT22;11483;55.828;37.488;2023-12-22T03:25:09;2.40;99.90
22633;DHT22;11483;55.828;37.488;2023-12-22T03:27:35;2.30;99.90
22633;DHT22;11483;55.828;37.488;2023-12-22T03:30:01;2.30;99.90
22633;DHT22;11483;55.828;37.488;2023-12-22T03:32:28;2.30;99.90
22633;DHT22;11483;55.828;37.488;2023-12-22T03:34:53;2.30;99.90
22633;DHT22;11483;55.828;37.488;2023-12-22T03:37:19;2.30;99.90
22633;DHT22;11483;55.828;37.488;2023-12-22T03:39:45;2.30;99.90
22633;DHT22;11483;55.828;37.488;2023-12-22T03:42:11;2.20;99.90
22633;DHT22;11483;55.828;37.488;2023-12-22T03:44:37;2.20;99.90
22633;DHT22;11483;55.828;37.488;2023-12-22T03:47:03;2.10;99.90
22633;DHT22;11483;55.828;37.488;2023-12-22T03:49:29;2.20;99.90
22633;DHT22;11483;55.828;37.488;2023-12-22T03:51:55;2.10;99.90
22633;DHT22;11483;55.828;37.488;2023-12-22T03:54:21;2.10;99.90
22633;DHT22;11483;55.828;37.488;2023-12-22T03:56:47;2.10;99.90
22633;DHT22;11483;55.828;37.488;2023-12-22T03:59:13;2.10;99.90
22633;DHT22;11483;55.828;37.488;2023-12-22T04:01:39;2.10;99.90
22633;DHT22;11483;55.828;37.488;2023-12-22T04:04:04;2.10;99.90
22633;DHT22;11483;55.828;37.488;2023-12-22T04:06:30;2.00;99.90
22633;DHT22;11483;55.828;37.488;2023-12-22T04:08:56;2.10;99.90
22633;DHT22;11483;55.828;37.488;2023-12-22T04:11:22;2.00;99.90
22633;DHT22;11483;55.828;37.488;2023-12-22T04:13:48;2.00;99.90
22633;DHT22;11483;55.828;37.488;2023-12-22T04:16:14;2.00;99.90
22633;DHT22;11483;55.828;37.488;2023-12-22T04:18:40;2.00;99.90
22633;DHT22;11483;55.828;37.488;2023-12-22T04:21:06;2.00;99.90
22633;DHT22;11483;55.828;37.488;2023-12-22T04:23:31;1.90;99.90
22633;DHT22;11483;55.828;37.488;2023-12-22T04:25:57;2.00;99.90
22633;DHT22;11483;55.828;37.488;2023-12-22T04:28:23;2.00;99.90
22633;DHT22;11483;55.828;37.488;2023-12-22T04:30:49;2.00;99.90
22633;DHT22;11483;55.828;37.488;2023-12-22T04:33:16;1.90;99.90
22633;DHT22;11483;55.828;37.488;2023-12-22T04:35:41;1.90;99.90
22633;DHT22;11483;55.828;37.488;2023-12-22T04:38:08;2.00;99.90
22633;DHT22;11483;55.828;37.488;2023-12-22T04:40:36;1.90;99.90
22633;DHT22;11483;55.828;37.488;2023-12-22T04:43:02;1.90;99.90
22633;DHT22;11483;55.828;37.488;2023-12-22T04:45:28;1.90;99.90
22633;DHT22;11483;55.828;37.488;2023-12-22T04:47:53;2.00;99.90
22633;DHT22;11483;55.828;37.488;2023-12-22T04:50:19;1.90;99.90
22633;DHT22;11483;55.828;37.488;2023-12-22T04:52:45;2.00;99.90
22633;DHT22;11483;55.828;37.488;2023-12-22T04:55:12;2.00;99.90
22633;DHT22;11483;55.828;37.488;2023-12-22T04:57:37;1.90;99.90
22633;DHT22;11483;55.828;37.488;2023-12-22T05:00:04;1.90;99.90
22633;DHT22;11483;55.828;37.488;2023-12-22T05:02:30;1.90;99.90
22633;DHT22;11483;55.828;37.488;2023-12-22T05:04:56;1.90;99.90
22633;DHT22;11483;55.828;37.488;2023-12-22T05:07:22;1.90;99.90
22633;DHT22;11483;55.828;37.488;2023-12-22T05:09:48;1.90;99.90
22633;DHT22;11483;55.828;37.488;2023-12-22T05:12:14;1.90;99.90
22633;DHT22;11483;55.828;37.488;2023-12-22T05:14:39;1.90;99.90
22633;DHT22;11483;55.828;37.488;2023-12-22T05:17:05;1.90;99.90
22633;DHT22;11483;55.828;37.488;2023-12-22T05:19:31;1.80;99.90
22633;DHT22;11483;55.828;37.488;2023-12-22T05:21:57;1.80;99.90
22633;DHT22;11483;55.828;37.488;2023-12-22T05:24:23;1.90;99.90
22633;DHT22;11483;55.828;37.488;2023-12-22T05:26:49;1.90;99.90
22633;DHT22;11483;55.828;37.488;2023-12-22T05:29:15;1.90;99.90
22633;DHT22;11483;55.828;37.488;2023-12-22T05:31:41;1.80;99.90
22633;DHT22;11483;55.828;37.488;2023-12-22T05:34:07;1.90;99.90
22633;DHT22;11483;55.828;37.488;2023-12-22T05:36:35;1.90;99.90
22633;DHT22;11483;55.828;37.488;2023-12-22T05:39:01;1.90;99.90
22633;DHT22;11483;55.828;37.488;2023-12-22T05:41:27;2.00;99.90
22633;DHT22;11483;55.828;37.488;2023-12-22T05:43:54;2.00;99.90
22633;DHT22;11483;55.828;37.488;2023-12-22T05:46:20;2.00;99.90
22633;DHT22;11483;55.828;37.488;2023-12-22T05:48:46;1.90;99.90
22633;DHT22;11483;55.828;37.488;2023-12-22T05:51:11;1.90;99.90
22633;DHT22;11483;55.828;37.488;2023-12-22T05:53:40;1.90;99.90
22633;DHT22;11483;55.828;37.488;2023-12-22T05:56:17;2.00;99.90
22633;DHT22;11483;55.828;37.488;2023-12-22T05:58:44;1.90;99.90
22633;DHT22;11483;55.828;37.488;2023-12-22T06:01:15;1.90;99.90
22633;DHT22;11483;55.828;37.488;2023-12-22T06:03:41;1.90;99.90
22633;DHT22;11483;55.828;37.488;2023-12-22T06:06:07;1.90;99.90
22633;DHT22;11483;55.828;37.488;2023-12-22T06:08:33;1.90;99.90
22633;DHT22;11483;55.828;37.488;2023-12-22T06:10:59;1.90;99.90
22633;DHT22;11483;55.828;37.488;2023-12-22T06:13:25;1.90;99.90
22633;DHT22;11483;55.828;37.488;2023-12-22T06:15:51;1.90;99.90
22633;DHT22;11483;55.828;37.488;2023-12-22T06:18:16;1.80;99.90
22633;DHT22;11483;55.828;37.488;2023-12-22T06:20:42;1.90;99.90
22633;DHT22;11483;55.828;37.488;2023-12-22T06:23:08;1.90;99.90
22633;DHT22;11483;55.828;37.488;2023-12-22T06:25:34;1.80;99.90
22633;DHT22;11483;55.828;37.488;2023-12-22T06:28:00;1.80;99.90
22633;DHT22;11483;55.828;37.488;2023-12-22T06:30:26;1.80;99.90
22633;DHT22;11483;55.828;37.488;2023-12-22T06:32:52;1.70;99.90
22633;DHT22;11483;55.828;37.488;2023-12-22T06:35:18;1.70;99.90
22633;DHT22;11483;55.828;37.488;2023-12-22T06:37:49;1.80;99.90
22633;DHT22;11483;55.828;37.488;2023-12-22T06:40:15;1.90;99.90
22633;DHT22;11483;55.828;37.488;2023-12-22T06:42:41;1.90;99.90
22633;DHT22;11483;55.828;37.488;2023-12-22T06:45:08;1.90;99.90
22633;DHT22;11483;55.828;37.488;2023-12-22T06:47:36;1.90;99.90
22633;DHT22;11483;55.828;37.488;2023-12-22T06:50:02;1.90;99.90
22633;DHT22;11483;55.828;37.488;2023-12-22T06:52:29;1.90;99.90
22633;DHT22;11483;55.828;37.488;2023-12-22T06:54:56;2.00;99.90
22633;DHT22;11483;55.828;37.488;2023-12-22T06:57:22;2.00;99.90
22633;DHT22;11483;55.828;37.488;2023-12-22T06:59:48;2.00;99.90
22633;DHT22;11483;55.828;37.488;2023-12-22T07:02:15;1.90;99.90
22633;DHT22;11483;55.828;37.488;2023-12-22T07:05:29;2.00;99.90
22633;DHT22;11483;55.828;37.488;2023-12-22T07:07:49;2.00;99.90
22633;DHT22;11483;55.828;37.488;2023-12-22T07:10:16;2.00;99.90
22633;DHT22;11483;55.828;37.488;2023-12-22T07:12:42;2.10;99.90
22633;DHT22;11483;55.828;37.488;2023-12-22T07:15:08;2.00;99.90
22633;DHT22;11483;55.828;37.488;2023-12-22T07:17:34;2.10;99.90
22633;DHT22;11483;55.828;37.488;2023-12-22T07:20:00;2.10;99.90
22633;DHT22;11483;55.828;37.488;2023-12-22T07:22:28;2.10;99.90
22633;DHT22;11483;55.828;37.488;2023-12-22T07:24:54;2.00;99.90
22633;DHT22;11483;55.828;37.488;2023-12-22T07:27:21;2.00;99.90
22633;DHT22;11483;55.828;37.488;2023-12-22T07:29:47;2.10;99.90
22633;DHT22;11483;55.828;37.488;2023-12-22T07:32:13;2.10;99.90
22633;DHT22;11483;55.828;37.488;2023-12-22T07:34:39;2.00;99.90
22633;DHT22;11483;55.828;37.488;2023-12-22T07:37:05;2.10;99.90
22633;DHT22;11483;55.828;37.488;2023-12-22T07:39:31;2.10;99.90
22633;DHT22;11483;55.828;37.488;2023-12-22T07:41:57;2.10;99.90
22633;DHT22;11483;55.828;37.488;2023-12-22T07:44:22;2.00;99.90
22633;DHT22;11483;55.828;37.488;2023-12-22T07:46:59;2.10;99.90
22633;DHT22;11483;55.828;37.488;2023-12-22T07:49:25;2.10;99.90
22633;DHT22;11483;55.828;37.488;2023-12-22T07:51:52;2.20;99.90
22633;DHT22;11483;55.828;37.488;2023-12-22T07:54:18;2.40;99.90
22633;DHT22;11483;55.828;37.488;2023-12-22T07:56:44;2.50;99.90
22633;DHT22;11483;55.828;37.488;2023-12-22T07:59:10;2.70;99.90
22633;DHT22;11483;55.828;37.488;2023-12-22T08:01:36;3.00;99.90
22633;DHT22;11483;55.828;37.488;2023-12-22T08:04:02;3.20;99.90
22633;DHT22;11483;55.828;37.488;2023-12-22T08:06:27;3.40;99.90
22633;DHT22;11483;55.828;37.488;2023-12-22T08:08:53;3.50;99.90
22633;DHT22;11483;55.828;37.488;2023-12-22T08:11:20;3.50;99.90
22633;DHT22;11483;55.828;37.488;2023-12-22T08:13:49;3.50;99.90
22633;DHT22;11483;55.828;37.488;2023-12-22T08:16:15;3.60;99.90
22633;DHT22;11483;55.828;37.488;2023-12-22T08:18:41;3.50;99.90
22633;DHT22;11483;55.828;37.488;2023-12-22T08:21:07;3.60;99.90
22633;DHT22;11483;55.828;37.488;2023-12-22T08:23:33;3.90;99.90
22633;DHT22;11483;55.828;37.488;2023-12-22T08:25:59;4.10;99.90
22633;DHT22;11483;55.828;37.488;2023-12-22T08:28:25;4.30;99.90
22633;DHT22;11483;55.828;37.488;2023-12-22T08:30:51;4.20;99.90
22633;DHT22;11483;55.828;37.488;2023-12-22T08:33:17;4.00;99.90
22633;DHT22;11483;55.828;37.488;2023-12-22T08:35:43;3.90;99.90
22633;DHT22;11483;55.828;37.488;2023-12-22T08:38:09;3.90;99.90
22633;DHT22;11483;55.828;37.488;2023-12-22T08:40:35;4.00;99.90
22633;DHT22;11483;55.828;37.488;2023-12-22T08:43:01;3.90;99.90
22633;DHT22;11483;55.828;37.488;2023-12-22T08:45:28;3.70;99.90
22633;DHT22;11483;55.828;37.488;2023-12-22T08:47:58;3.80;99.90
22633;DHT22;11483;55.828;37.488;2023-12-22T08:50:24;3.60;99.90
22633;DHT22;11483;55.828;37.488;2023-12-22T08:52:50;3.60;99.90
22633;DHT22;11483;55.828;37.488;2023-12-22T08:55:16;3.90;99.90
22633;DHT22;11483;55.828;37.488;2023-12-22T08:57:42;4.10;99.90
22633;DHT22;11483;55.828;37.488;2023-12-22T09:00:08;4.30;99.90
22633;DHT22;11483;55.828;37.488;2023-12-22T09:02:34;4.50;99.90
22633;DHT22;11483;55.828;37.488;2023-12-22T09:05:00;4.80;99.90
22633;DHT22;11483;55.828;37.488;2023-12-22T09:07:27;5.00;99.90
22633;DHT22;11483;55.828;37.488;2023-12-22T09:09:53;5.20;99.90
22633;DHT22;11483;55.828;37.488;2023-12-22T09:12:19;5.20;99.90
22633;DHT22;11483;55.828;37.488;2023-12-22T09:14:44;5.20;99.90
22633;DHT22;11483;55.828;37.488;2023-12-22T09:17:11;5.40;99.90
22633;DHT22;11483;55.828;37.488;2023-12-22T09:19:37;5.30;99.90
22633;DHT22;11483;55.828;37.488;2023-12-22T09:22:04;5.20;99.90
22633;DHT22;11483;55.828;37.488;2023-12-22T09:24:30;4.90;99.90
22633;DHT22;11483;55.828;37.488;2023-12-22T09:26:56;4.90;99.90
22633;DHT22;11483;55.828;37.488;2023-12-22T09:29:29;5.10;99.90
22633;DHT22;11483;55.828;37.488;2023-12-22T09:31:56;4.80;99.90
22633;DHT22;11483;55.828;37.488;2023-12-22T09:34:22;4.80;99.90
22633;DHT22;11483;55.828;37.488;2023-12-22T09:36:49;4.70;99.90
22633;DHT22;11483;55.828;37.488;2023-12-22T09:39:14;4.80;99.90
22633;DHT22;11483;55.828;37.488;2023-12-22T09:41:48;4.60;99.90
22633;DHT22;11483;55.828;37.488;2023-12-22T09:44:18;5.00;99.90
22633;DHT22;11483;55.828;37.488;2023-12-22T09:46:46;5.20;99.90
22633;DHT22;11483;55.828;37.488;2023-12-22T09:49:13;5.50;99.90
22633;DHT22;11483;55.828;37.488;2023-12-22T09:51:41;5.40;99.90
22633;DHT22;11483;55.828;37.488;2023-12-22T09:54:08;5.40;99.90
22633;DHT22;11483;55.828;37.488;2023-12-22T09:56:36;5.30;99.90
22633;DHT22;11483;55.828;37.488;2023-12-22T09:59:11;4.80;99.90
22633;DHT22;11483;55.828;37.488;2023-12-22T10:01:45;4.70;99.90
22633;DHT22;11483;55.828;37.488;2023-12-22T10:04:15;4.60;99.90
22633;DHT22;11483;55.828;37.488;2023-12-22T10:06:41;4.50;99.90
22633;DHT22;11483;55.828;37.488;2023-12-22T10:09:08;4.50;99.90
22633;DHT22;11483;55.828;37.488;2023-12-22T10:11:35;4.50;99.90
22633;DHT22;11483;55.828;37.488;2023-12-22T10:14:05;4.40;99.90
22633;DHT22;11483;55.828;37.488;2023-12-22T10:16:32;4.20;99.90
22633;DHT22;11483;55.828;37.488;2023-12-22T10:18:59;3.90;99.90
22633;DHT22;11483;55.828;37.488;2023-12-22T10:21:25;3.90;99.90
22633;DHT22;11483;55.828;37.488;2023-12-22T10:23:51;3.60;99.90
22633;DHT22;11483;55.828;37.488;2023-12-22T10:26:17;3.60;99.90
22633;DHT22;11483;55.828;37.488;2023-12-22T10:28:43;3.60;99.90
22633;DHT22;11483;55.828;37.488;2023-12-22T10:31:09;3.50;99.90
22633;DHT22;11483;55.828;37.488;2023-12-22T10:33:35;3.40;99.90
22633;DHT22;11483;55.828;37.488;2023-12-22T10:36:01;3.20;99.90
22633;DHT22;11483;55.828;37.488;2023-12-22T10:38:34;3.00;99.90
22633;DHT22;11483;55.828;37.488;2023-12-22T10:41:04;3.00;99.90
22633;DHT22;11483;55.828;37.488;2023-12-22T10:43:30;3.00;99.90
22633;DHT22;11483;55.828;37.488;2023-12-22T10:46:03;2.90;99.90
22633;DHT22;11483;55.828;37.488;2023-12-22T10:48:29;2.80;99.90
22633;DHT22;11483;55.828;37.488;2023-12-22T10:50:54;2.60;99.90
22633;DHT22;11483;55.828;37.488;2023-12-22T10:53:21;2.60;99.90
22633;DHT22;11483;55.828;37.488;2023-12-22T10:55:49;2.60;99.90
22633;DHT22;11483;55.828;37.488;2023-12-22T10:58:16;2.50;99.90
22633;DHT22;11483;55.828;37.488;2023-12-22T11:00:45;3.30;99.90
22633;DHT22;11483;55.828;37.488;2023-12-22T11:03:14;2.50;99.90
22633;DHT22;11483;55.828;37.488;2023-12-22T11:05:45;2.40;99.90
22633;DHT22;11483;55.828;37.488;2023-12-22T11:08:12;2.40;99.90
22633;DHT22;11483;55.828;37.488;2023-12-22T11:10:42;2.40;99.90
22633;DHT22;11483;55.828;37.488;2023-12-22T11:13:12;2.40;99.90
22633;DHT22;11483;55.828;37.488;2023-12-22T11:15:39;2.30;99.90
22633;DHT22;11483;55.828;37.488;2023-12-22T11:18:08;2.30;99.90
22633;DHT22;11483;55.828;37.488;2023-12-22T11:20:35;2.20;99.90
22633;DHT22;11483;55.828;37.488;2023-12-22T11:23:02;2.20;99.90
22633;DHT22;11483;55.828;37.488;2023-12-22T11:25:30;2.20;99.90
22633;DHT22;11483;55.828;37.488;2023-12-22T11:27:58;2.20;99.90
22633;DHT22;11483;55.828;37.488;2023-12-22T11:30:25;2.30;99.90
22633;DHT22;11483;55.828;37.488;2023-12-22T11:32:53;2.20;99.90
22633;DHT22;11483;55.828;37.488;2023-12-22T11:35:23;2.20;99.90
22633;DHT22;11483;55.828;37.488;2023-12-22T11:37:49;2.20;99.90
22633;DHT22;11483;55.828;37.488;2023-12-22T11:40:15;2.20;99.90
22633;DHT22;11483;55.828;37.488;2023-12-22T11:42:48;2.20;99.90
22633;DHT22;11483;55.828;37.488;2023-12-22T11:45:14;2.10;99.90
22633;DHT22;11483;55.828;37.488;2023-12-22T11:47:45;2.10;99.90
22633;DHT22;11483;55.828;37.488;2023-12-22T11:50:12;2.10;99.90
22633;DHT22;11483;55.828;37.488;2023-12-22T11:52:38;2.10;99.90
22633;DHT22;11483;55.828;37.488;2023-12-22T11:55:05;1.90;99.90
22633;DHT22;11483;55.828;37.488;2023-12-22T11:57:32;1.80;99.90
22633;DHT22;11483;55.828;37.488;2023-12-22T12:00:04;1.90;99.90
22633;DHT22;11483;55.828;37.488;2023-12-22T12:02:33;1.80;99.90
22633;DHT22;11483;55.828;37.488;2023-12-22T12:05:00;1.80;99.90
22633;DHT22;11483;55.828;37.488;2023-12-22T12:07:46;1.80;99.90
22633;DHT22;11483;55.828;37.488;2023-12-22T12:10:51;1.80;99.90
22633;DHT22;11483;55.828;37.488;2023-12-22T12:13:22;1.70;99.90
22633;DHT22;11483;55.828;37.488;2023-12-22T12:15:53;1.70;99.90
22633;DHT22;11483;55.828;37.488;2023-12-22T12:18:24;1.60;99.90
22633;DHT22;11483;55.828;37.488;2023-12-22T12:20:50;1.60;99.90
22633;DHT22;11483;55.828;37.488;2023-12-22T12:23:16;1.50;99.90
22633;DHT22;11483;55.828;37.488;2023-12-22T12:25:43;1.50;99.90
22633;DHT22;11483;55.828;37.488;2023-12-22T12:28:09;1.50;99.90
22633;DHT22;11483;55.828;37.488;2023-12-22T12:30:37;1.40;99.90
22633;DHT22;11483;55.828;37.488;2023-12-22T12:33:09;1.40;99.90
22633;DHT22;11483;55.828;37.488;2023-12-22T12:35:39;1.40;99.90
22633;DHT22;11483;55.828;37.488;2023-12-22T12:38:06;1.30;99.90
22633;DHT22;11483;55.828;37.488;2023-12-22T12:40:32;1.30;99.90
22633;DHT22;11483;55.828;37.488;2023-12-22T12:43:01;1.20;99.90
22633;DHT22;11483;55.828;37.488;2023-12-22T12:45:28;1.20;99.90
22633;DHT22;11483;55.828;37.488;2023-12-22T12:47:58;1.20;99.90
22633;DHT22;11483;55.828;37.488;2023-12-22T12:50:24;1.20;99.90
22633;DHT22;11483;55.828;37.488;2023-12-22T12:52:52;1.20;99.90
22633;DHT22;11483;55.828;37.488;2023-12-22T12:55:22;1.20;99.90
22633;DHT22;11483;55.828;37.488;2023-12-22T12:57:52;1.20;99.90
22633;DHT22;11483;55.828;37.488;2023-12-22T13:00:29;1.10;99.90
22633;DHT22;11483;55.828;37.488;2023-12-22T13:03:05;1.10;99.90
22633;DHT22;11483;55.828;37.488;2023-12-22T13:05:34;1.10;99.90
22633;DHT22;11483;55.828;37.488;2023-12-22T13:08:13;1.10;99.90
22633;DHT22;11483;55.828;37.488;2023-12-22T13:10:40;1.10;99.90
22633;DHT22;11483;55.828;37.488;2023-12-22T13:13:06;1.10;99.90
22633;DHT22;11483;55.828;37.488;2023-12-22T13:15:32;1.10;99.90
22633;DHT22;11483;55.828;37.488;2023-12-22T13:17:58;1.10;99.90
22633;DHT22;11483;55.828;37.488;2023-12-22T13:20:25;1.20;99.90
22633;DHT22;11483;55.828;37.488;2023-12-22T13:22:51;1.20;99.90
22633;DHT22;11483;55.828;37.488;2023-12-22T13:25:17;1.20;99.90
22633;DHT22;11483;55.828;37.488;2023-12-22T13:27:46;1.20;99.90
22633;DHT22;11483;55.828;37.488;2023-12-22T13:30:14;1.20;99.90
22633;DHT22;11483;55.828;37.488;2023-12-22T13:32:40;1.30;99.90
22633;DHT22;11483;55.828;37.488;2023-12-22T13:35:07;1.30;99.90
22633;DHT22;11483;55.828;37.488;2023-12-22T13:37:33;1.30;99.90
22633;DHT22;11483;55.828;37.488;2023-12-22T13:39:59;1.30;99.90
22633;DHT22;11483;55.828;37.488;2023-12-22T13:42:25;1.30;99.90
22633;DHT22;11483;55.828;37.488;2023-12-22T13:44:51;1.30;99.90
22633;DHT22;11483;55.828;37.488;2023-12-22T13:47:18;1.40;99.90
22633;DHT22;11483;55.828;37.488;2023-12-22T13:49:48;1.30;99.90
22633;DHT22;11483;55.828;37.488;2023-12-22T13:52:30;1.40;99.90
22633;DHT22;11483;55.828;37.488;2023-12-22T13:54:58;1.30;99.90
22633;DHT22;11483;55.828;37.488;2023-12-22T13:57:28;1.30;99.90
22633;DHT22;11483;55.828;37.488;2023-12-22T13:59:54;1.40;99.90
22633;DHT22;11483;55.828;37.488;2023-12-22T14:02:24;1.40;99.90
22633;DHT22;11483;55.828;37.488;2023-12-22T14:04:53;1.40;99.90
22633;DHT22;11483;55.828;37.488;2023-12-22T14:07:19;1.30;99.90
22633;DHT22;11483;55.828;37.488;2023-12-22T14:09:45;1.40;99.90
22633;DHT22;11483;55.828;37.488;2023-12-22T14:12:11;1.40;99.90
22633;DHT22;11483;55.828;37.488;2023-12-22T14:14:37;1.40;99.90
22633;DHT22;11483;55.828;37.488;2023-12-22T14:17:03;1.40;99.90
22633;DHT22;11483;55.828;37.488;2023-12-22T14:19:29;1.40;99.90
22633;DHT22;11483;55.828;37.488;2023-12-22T14:21:55;1.40;99.90
22633;DHT22;11483;55.828;37.488;2023-12-22T14:24:21;1.40;99.90
22633;DHT22;11483;55.828;37.488;2023-12-22T14:26:56;1.30;99.90
22633;DHT22;11483;55.828;37.488;2023-12-22T14:29:22;1.30;99.90
22633;DHT22;11483;55.828;37.488;2023-12-22T14:31:50;1.40;99.90
22633;DHT22;11483;55.828;37.488;2023-12-22T14:34:17;1.40;99.90
22633;DHT22;11483;55.828;37.488;2023-12-22T14:36:44;1.40;99.90
22633;DHT22;11483;55.828;37.488;2023-12-22T14:39:10;1.40;99.90
22633;DHT22;11483;55.828;37.488;2023-12-22T14:41:39;1.50;99.90
22633;DHT22;11483;55.828;37.488;2023-12-22T14:44:06;1.40;99.90
22633;DHT22;11483;55.828;37.488;2023-12-22T14:46:32;1.60;99.90
22633;DHT22;11483;55.828;37.488;2023-12-22T14:48:58;1.50;99.90
22633;DHT22;11483;55.828;37.488;2023-12-22T14:51:24;1.50;99.90
22633;DHT22;11483;55.828;37.488;2023-12-22T14:53:50;1.50;99.90
22633;DHT22;11483;55.828;37.488;2023-12-22T14:56:16;1.50;99.90
22633;DHT22;11483;55.828;37.488;2023-12-22T14:58:42;1.50;99.90
22633;DHT22;11483;55.828;37.488;2023-12-22T15:01:12;1.50;99.90
22633;DHT22;11483;55.828;37.488;2023-12-22T15:03:39;1.60;99.90
22633;DHT22;11483;55.828;37.488;2023-12-22T15:06:05;1.50;99.90
22633;DHT22;11483;55.828;37.488;2023-12-22T15:08:31;1.60;99.90
22633;DHT22;11483;55.828;37.488;2023-12-22T15:10:57;1.60;99.90
22633;DHT22;11483;55.828;37.488;2023-12-22T15:13:23;1.50;99.90
22633;DHT22;11483;55.828;37.488;2023-12-22T15:15:49;1.40;99.90
22633;DHT22;11483;55.828;37.488;2023-12-22T15:18:15;1.50;99.90
22633;DHT22;11483;55.828;37.488;2023-12-22T15:20:40;1.40;99.90
22633;DHT22;11483;55.828;37.488;2023-12-22T15:23:06;1.50;99.90
22633;DHT22;11483;55.828;37.488;2023-12-22T15:25:32;1.50;99.90
22633;DHT22;11483;55.828;37.488;2023-12-22T15:27:58;1.50;99.90
22633;DHT22;11483;55.828;37.488;2023-12-22T15:30:24;1.40;99.90